sensor_id;sensor_type;location;lat;lon;timestamp;P1;durP1;ratioP1;P2;durP2;ratioP2
37647;SDS011;23490;53.656;10.076;2024-01-06T00:00:13;5.47;;;2.33;;
37647;SDS011;23490;53.656;10.076;2024-01-06T00:02:40;4.60;;;2.38;;
37647;SDS011;23490;53.656;10.076;2024-01-06T00:05:05;6.65;;;2.25;;
37647;SDS011;23490;53.656;10.076;2024-01-06T00:07:31;5.88;;;2.30;;
37647;SDS011;23490;53.656;10.076;2024-01-06T00:09:56;7.22;;;2.50;;
37647;SDS011;23490;53.656;10.076;2024-01-06T00:12:22;6.28;;;2.92;;
37647;SDS011;23490;53.656;10.076;2024-01-06T00:14:47;6.20;;;2.65;;
37647;SDS011;23490;53.656;10.076;2024-01-06T00:17:13;6.07;;;2.25;;
37647;SDS011;23490;53.656;10.076;2024-01-06T00:19:39;4.88;;;2.25;;
37647;SDS011;23490;53.656;10.076;2024-01-06T00:22:04;8.18;;;2.55;;
37647;SDS011;23490;53.656;10.076;2024-01-06T00:24:30;7.88;;;2.40;;
37647;SDS011;23490;53.656;10.076;2024-01-06T00:26:55;6.47;;;2.67;;
37647;SDS011;23490;53.656;10.076;2024-01-06T00:29:20;5.63;;;2.60;;
37647;SDS011;23490;53.656;10.076;2024-01-06T00:31:46;6.57;;;2.35;;
37647;SDS011;23490;53.656;10.076;2024-01-06T00:34:11;6.53;;;2.75;;
37647;SDS011;23490;53.656;10.076;2024-01-06T00:36:36;5.40;;;2.53;;
37647;SDS011;23490;53.656;10.076;2024-01-06T00:39:02;6.32;;;2.45;;
37647;SDS011;23490;53.656;10.076;2024-01-06T00:41:28;5.60;;;2.35;;
37647;SDS011;23490;53.656;10.076;2024-01-06T00:43:54;5.53;;;2.33;;
37647;SDS011;23490;53.656;10.076;2024-01-06T00:46:19;5.85;;;2.35;;
37647;SDS011;23490;53.656;10.076;2024-01-06T00:48:45;6.65;;;2.60;;
37647;SDS011;23490;53.656;10.076;2024-01-06T00:51:10;5.97;;;2.40;;
37647;SDS011;23490;53.656;10.076;2024-01-06T00:53:36;5.43;;;2.47;;
37647;SDS011;23490;53.656;10.076;2024-01-06T00:56:01;5.53;;;2.72;;
37647;SDS011;23490;53.656;10.076;2024-01-06T00:58:27;6.75;;;2.63;;
37647;SDS011;23490;53.656;10.076;2024-01-06T01:00:53;5.57;;;2.72;;
37647;SDS011;23490;53.656;10.076;2024-01-06T01:03:18;5.28;;;2.20;;
37647;SDS011;23490;53.656;10.076;2024-01-06T01:05:43;5.40;;;2.40;;
37647;SDS011;23490;53.656;10.076;2024-01-06T01:08:09;5.35;;;2.10;;
37647;SDS011;23490;53.656;10.076;2024-01-06T01:10:34;7.03;;;3.05;;
37647;SDS011;23490;53.656;10.076;2024-01-06T01:12:59;5.90;;;2.47;;
37647;SDS011;23490;53.656;10.076;2024-01-06T01:15:24;5.97;;;2.17;;
37647;SDS011;23490;53.656;10.076;2024-01-06T01:17:50;5.28;;;2.58;;
37647;SDS011;23490;53.656;10.076;2024-01-06T01:20:15;7.78;;;3.40;;
37647;SDS011;23490;53.656;10.076;2024-01-06T01:22:41;6.72;;;2.65;;
37647;SDS011;23490;53.656;10.076;2024-01-06T01:25:06;8.07;;;3.30;;
37647;SDS011;23490;53.656;10.076;2024-01-06T01:27:33;6.13;;;2.67;;
37647;SDS011;23490;53.656;10.076;2024-01-06T01:29:59;7.72;;;3.40;;
37647;SDS011;23490;53.656;10.076;2024-01-06T01:32:24;8.88;;;3.38;;
37647;SDS011;23490;53.656;10.076;2024-01-06T01:34:50;7.30;;;3.03;;
37647;SDS011;23490;53.656;10.076;2024-01-06T01:37:15;7.78;;;3.00;;
37647;SDS011;23490;53.656;10.076;2024-01-06T01:39:41;6.47;;;2.78;;
37647;SDS011;23490;53.656;10.076;2024-01-06T01:42:06;6.25;;;2.60;;
37647;SDS011;23490;53.656;10.076;2024-01-06T01:44:31;6.57;;;2.80;;
37647;SDS011;23490;53.656;10.076;2024-01-06T01:46:57;7.88;;;3.22;;
37647;SDS011;23490;53.656;10.076;2024-01-06T01:49:23;7.82;;;2.97;;
37647;SDS011;23490;53.656;10.076;2024-01-06T01:51:49;6.88;;;2.90;;
37647;SDS011;23490;53.656;10.076;2024-01-06T01:54:15;7.57;;;3.28;;
37647;SDS011;23490;53.656;10.076;2024-01-06T01:56:40;7.28;;;3.17;;
37647;SDS011;23490;53.656;10.076;2024-01-06T01:59:13;7.40;;;3.15;;
37647;SDS011;23490;53.656;10.076;2024-01-06T02:01:42;8.38;;;4.00;;
37647;SDS011;23490;53.656;10.076;2024-01-06T02:04:08;7.72;;;3.40;;
37647;SDS011;23490;53.656;10.076;2024-01-06T02:06:33;7.38;;;3.40;;
37647;SDS011;23490;53.656;10.076;2024-01-06T02:08:59;7.57;;;2.95;;
37647;SDS011;23490;53.656;10.076;2024-01-06T02:11:24;7.47;;;3.03;;
37647;SDS011;23490;53.656;10.076;2024-01-06T02:13:50;6.28;;;2.88;;
37647;SDS011;23490;53.656;10.076;2024-01-06T02:16:15;8.25;;;3.53;;
37647;SDS011;23490;53.656;10.076;2024-01-06T02:18:40;8.88;;;3.33;;
37647;SDS011;23490;53.656;10.076;2024-01-06T02:21:06;8.05;;;3.83;;
37647;SDS011;23490;53.656;10.076;2024-01-06T02:23:34;9.40;;;3.90;;
37647;SDS011;23490;53.656;10.076;2024-01-06T02:26:00;7.00;;;3.53;;
37647;SDS011;23490;53.656;10.076;2024-01-06T02:28:25;7.45;;;3.47;;
37647;SDS011;23490;53.656;10.076;2024-01-06T02:30:51;7.80;;;3.45;;
37647;SDS011;23490;53.656;10.076;2024-01-06T02:33:16;8.05;;;3.35;;
37647;SDS011;23490;53.656;10.076;2024-01-06T02:35:44;9.73;;;3.85;;
37647;SDS011;23490;53.656;10.076;2024-01-06T02:38:09;9.07;;;3.58;;
37647;SDS011;23490;53.656;10.076;2024-01-06T02:40:35;5.93;;;2.50;;
37647;SDS011;23490;53.656;10.076;2024-01-06T02:43:00;8.43;;;3.95;;
37647;SDS011;23490;53.656;10.076;2024-01-06T02:45:25;7.97;;;3.80;;
37647;SDS011;23490;53.656;10.076;2024-01-06T02:47:51;9.50;;;4.10;;
37647;SDS011;23490;53.656;10.076;2024-01-06T02:50:16;7.75;;;3.78;;
37647;SDS011;23490;53.656;10.076;2024-01-06T02:52:41;9.05;;;4.10;;
37647;SDS011;23490;53.656;10.076;2024-01-06T02:55:07;7.55;;;3.40;;
37647;SDS011;23490;53.656;10.076;2024-01-06T02:57:32;7.88;;;3.92;;
37647;SDS011;23490;53.656;10.076;2024-01-06T02:59:58;10.38;;;4.00;;
37647;SDS011;23490;53.656;10.076;2024-01-06T03:02:23;11.77;;;4.25;;
37647;SDS011;23490;53.656;10.076;2024-01-06T03:04:49;10.05;;;4.43;;
37647;SDS011;23490;53.656;10.076;2024-01-06T03:07:14;9.65;;;4.25;;
37647;SDS011;23490;53.656;10.076;2024-01-06T03:09:39;8.88;;;3.78;;
37647;SDS011;23490;53.656;10.076;2024-01-06T03:12:05;8.02;;;3.78;;
37647;SDS011;23490;53.656;10.076;2024-01-06T03:14:32;10.65;;;4.53;;
37647;SDS011;23490;53.656;10.076;2024-01-06T03:16:59;11.77;;;4.70;;
37647;SDS011;23490;53.656;10.076;2024-01-06T03:19:24;9.52;;;4.68;;
37647;SDS011;23490;53.656;10.076;2024-01-06T03:21:52;12.60;;;3.92;;
37647;SDS011;23490;53.656;10.076;2024-01-06T03:24:17;10.63;;;4.25;;
37647;SDS011;23490;53.656;10.076;2024-01-06T03:26:43;8.02;;;3.75;;
37647;SDS011;23490;53.656;10.076;2024-01-06T03:29:08;12.10;;;4.63;;
37647;SDS011;23490;53.656;10.076;2024-01-06T03:31:34;10.73;;;4.20;;
37647;SDS011;23490;53.656;10.076;2024-01-06T03:33:59;11.32;;;4.28;;
37647;SDS011;23490;53.656;10.076;2024-01-06T03:36:24;9.90;;;3.78;;
37647;SDS011;23490;53.656;10.076;2024-01-06T03:38:50;10.00;;;4.03;;
37647;SDS011;23490;53.656;10.076;2024-01-06T03:41:15;8.82;;;3.90;;
37647;SDS011;23490;53.656;10.076;2024-01-06T03:43:41;7.95;;;3.50;;
37647;SDS011;23490;53.656;10.076;2024-01-06T03:46:06;9.88;;;4.40;;
37647;SDS011;23490;53.656;10.076;2024-01-06T03:48:31;8.32;;;3.78;;
37647;SDS011;23490;53.656;10.076;2024-01-06T03:50:57;11.18;;;4.30;;
37647;SDS011;23490;53.656;10.076;2024-01-06T03:53:24;7.68;;;3.42;;
37647;SDS011;23490;53.656;10.076;2024-01-06T03:55:49;8.73;;;3.53;;
37647;SDS011;23490;53.656;10.076;2024-01-06T03:58:14;7.53;;;3.78;;
37647;SDS011;23490;53.656;10.076;2024-01-06T04:00:40;9.52;;;4.22;;
37647;SDS011;23490;53.656;10.076;2024-01-06T04:03:05;8.07;;;3.58;;
37647;SDS011;23490;53.656;10.076;2024-01-06T04:05:31;9.57;;;4.32;;
37647;SDS011;23490;53.656;10.076;2024-01-06T04:07:57;9.82;;;3.92;;
37647;SDS011;23490;53.656;10.076;2024-01-06T04:10:22;10.65;;;4.05;;
37647;SDS011;23490;53.656;10.076;2024-01-06T04:12:47;12.20;;;4.38;;
37647;SDS011;23490;53.656;10.076;2024-01-06T04:15:13;9.85;;;3.47;;
37647;SDS011;23490;53.656;10.076;2024-01-06T04:17:38;8.82;;;3.97;;
37647;SDS011;23490;53.656;10.076;2024-01-06T04:20:03;8.50;;;3.47;;
37647;SDS011;23490;53.656;10.076;2024-01-06T04:22:29;10.55;;;4.15;;
37647;SDS011;23490;53.656;10.076;2024-01-06T04:24:55;7.22;;;3.30;;
37647;SDS011;23490;53.656;10.076;2024-01-06T04:27:20;9.48;;;3.60;;
37647;SDS011;23490;53.656;10.076;2024-01-06T04:29:46;9.88;;;3.83;;
37647;SDS011;23490;53.656;10.076;2024-01-06T04:32:11;10.10;;;4.22;;
37647;SDS011;23490;53.656;10.076;2024-01-06T04:34:36;7.90;;;3.85;;
37647;SDS011;23490;53.656;10.076;2024-01-06T04:37:02;10.80;;;4.25;;
37647;SDS011;23490;53.656;10.076;2024-01-06T04:39:27;9.30;;;4.00;;
37647;SDS011;23490;53.656;10.076;2024-01-06T04:41:53;9.73;;;3.28;;
37647;SDS011;23490;53.656;10.076;2024-01-06T04:44:19;9.10;;;3.85;;
37647;SDS011;23490;53.656;10.076;2024-01-06T04:46:45;8.18;;;4.03;;
37647;SDS011;23490;53.656;10.076;2024-01-06T04:49:11;8.65;;;3.92;;
37647;SDS011;23490;53.656;10.076;2024-01-06T04:51:36;11.35;;;4.60;;
37647;SDS011;23490;53.656;10.076;2024-01-06T04:54:01;10.70;;;4.43;;
37647;SDS011;23490;53.656;10.076;2024-01-06T04:56:27;11.20;;;4.65;;
37647;SDS011;23490;53.656;10.076;2024-01-06T04:58:52;11.20;;;4.32;;
37647;SDS011;23490;53.656;10.076;2024-01-06T05:01:17;9.18;;;4.40;;
37647;SDS011;23490;53.656;10.076;2024-01-06T05:03:43;9.55;;;4.03;;
37647;SDS011;23490;53.656;10.076;2024-01-06T05:06:08;11.35;;;4.45;;
37647;SDS011;23490;53.656;10.076;2024-01-06T05:08:33;9.77;;;3.88;;
37647;SDS011;23490;53.656;10.076;2024-01-06T05:11:01;10.35;;;4.50;;
37647;SDS011;23490;53.656;10.076;2024-01-06T05:13:27;8.80;;;4.45;;
37647;SDS011;23490;53.656;10.076;2024-01-06T05:15:52;10.95;;;4.72;;
37647;SDS011;23490;53.656;10.076;2024-01-06T05:18:18;9.77;;;4.55;;
37647;SDS011;23490;53.656;10.076;2024-01-06T05:20:43;9.32;;;3.92;;
37647;SDS011;23490;53.656;10.076;2024-01-06T05:23:08;8.95;;;4.40;;
37647;SDS011;23490;53.656;10.076;2024-01-06T05:25:34;8.48;;;3.85;;
37647;SDS011;23490;53.656;10.076;2024-01-06T05:27:59;11.95;;;5.00;;
37647;SDS011;23490;53.656;10.076;2024-01-06T05:30:24;10.93;;;4.40;;
37647;SDS011;23490;53.656;10.076;2024-01-06T05:32:50;12.38;;;5.00;;
37647;SDS011;23490;53.656;10.076;2024-01-06T05:35:18;9.60;;;4.25;;
37647;SDS011;23490;53.656;10.076;2024-01-06T05:37:43;11.55;;;4.57;;
37647;SDS011;23490;53.656;10.076;2024-01-06T05:40:09;10.13;;;4.68;;
37647;SDS011;23490;53.656;10.076;2024-01-06T05:42:34;11.05;;;4.30;;
37647;SDS011;23490;53.656;10.076;2024-01-06T05:45:00;12.10;;;5.13;;
37647;SDS011;23490;53.656;10.076;2024-01-06T05:47:25;10.85;;;4.32;;
37647;SDS011;23490;53.656;10.076;2024-01-06T05:49:51;9.73;;;4.40;;
37647;SDS011;23490;53.656;10.076;2024-01-06T05:52:16;10.85;;;4.80;;
37647;SDS011;23490;53.656;10.076;2024-01-06T05:54:41;11.70;;;4.35;;
37647;SDS011;23490;53.656;10.076;2024-01-06T05:57:07;9.57;;;4.57;;
37647;SDS011;23490;53.656;10.076;2024-01-06T05:59:33;9.77;;;4.78;;
37647;SDS011;23490;53.656;10.076;2024-01-06T06:01:58;11.52;;;4.50;;
37647;SDS011;23490;53.656;10.076;2024-01-06T06:04:24;10.10;;;4.82;;
37647;SDS011;23490;53.656;10.076;2024-01-06T06:06:49;12.95;;;5.03;;
37647;SDS011;23490;53.656;10.076;2024-01-06T06:09:14;13.70;;;5.18;;
37647;SDS011;23490;53.656;10.076;2024-01-06T06:11:40;9.65;;;4.50;;
37647;SDS011;23490;53.656;10.076;2024-01-06T06:14:06;11.10;;;4.97;;
37647;SDS011;23490;53.656;10.076;2024-01-06T06:16:31;11.98;;;5.07;;
37647;SDS011;23490;53.656;10.076;2024-01-06T06:18:56;12.52;;;4.30;;
37647;SDS011;23490;53.656;10.076;2024-01-06T06:21:23;11.27;;;5.60;;
37647;SDS011;23490;53.656;10.076;2024-01-06T06:23:48;10.93;;;4.25;;
37647;SDS011;23490;53.656;10.076;2024-01-06T06:26:14;13.45;;;5.88;;
37647;SDS011;23490;53.656;10.076;2024-01-06T06:28:39;11.40;;;5.15;;
37647;SDS011;23490;53.656;10.076;2024-01-06T06:31:06;13.30;;;5.38;;
37647;SDS011;23490;53.656;10.076;2024-01-06T06:33:32;13.13;;;5.40;;
37647;SDS011;23490;53.656;10.076;2024-01-06T06:35:58;14.27;;;5.22;;
37647;SDS011;23490;53.656;10.076;2024-01-06T06:38:25;11.95;;;4.82;;
37647;SDS011;23490;53.656;10.076;2024-01-06T06:40:51;10.75;;;4.57;;
37647;SDS011;23490;53.656;10.076;2024-01-06T06:43:16;10.48;;;4.47;;
37647;SDS011;23490;53.656;10.076;2024-01-06T06:45:41;12.15;;;4.82;;
37647;SDS011;23490;53.656;10.076;2024-01-06T06:48:07;12.05;;;4.90;;
37647;SDS011;23490;53.656;10.076;2024-01-06T06:50:32;11.88;;;5.22;;
37647;SDS011;23490;53.656;10.076;2024-01-06T06:52:58;12.80;;;5.82;;
37647;SDS011;23490;53.656;10.076;2024-01-06T06:55:24;13.57;;;5.38;;
37647;SDS011;23490;53.656;10.076;2024-01-06T06:57:49;12.13;;;5.07;;
37647;SDS011;23490;53.656;10.076;2024-01-06T07:00:14;10.63;;;4.45;;
37647;SDS011;23490;53.656;10.076;2024-01-06T07:02:41;10.80;;;5.05;;
37647;SDS011;23490;53.656;10.076;2024-01-06T07:05:06;9.93;;;4.70;;
37647;SDS011;23490;53.656;10.076;2024-01-06T07:07:32;11.25;;;4.53;;
37647;SDS011;23490;53.656;10.076;2024-01-06T07:09:58;10.50;;;4.63;;
37647;SDS011;23490;53.656;10.076;2024-01-06T07:12:25;9.60;;;4.45;;
37647;SDS011;23490;53.656;10.076;2024-01-06T07:14:52;10.93;;;4.68;;
37647;SDS011;23490;53.656;10.076;2024-01-06T07:17:17;11.38;;;5.10;;
37647;SDS011;23490;53.656;10.076;2024-01-06T07:19:43;11.25;;;4.50;;
37647;SDS011;23490;53.656;10.076;2024-01-06T07:22:08;10.60;;;4.45;;
37647;SDS011;23490;53.656;10.076;2024-01-06T07:24:33;11.38;;;4.68;;
37647;SDS011;23490;53.656;10.076;2024-01-06T07:26:59;8.93;;;3.97;;
37647;SDS011;23490;53.656;10.076;2024-01-06T07:29:24;10.10;;;4.53;;
37647;SDS011;23490;53.656;10.076;2024-01-06T07:31:49;9.60;;;4.18;;
37647;SDS011;23490;53.656;10.076;2024-01-06T07:34:15;11.25;;;4.47;;
37647;SDS011;23490;53.656;10.076;2024-01-06T07:36:41;11.38;;;4.63;;
37647;SDS011;23490;53.656;10.076;2024-01-06T07:39:06;9.52;;;4.10;;
37647;SDS011;23490;53.656;10.076;2024-01-06T07:41:31;9.77;;;4.60;;
37647;SDS011;23490;53.656;10.076;2024-01-06T07:43:57;10.15;;;4.30;;
37647;SDS011;23490;53.656;10.076;2024-01-06T07:46:23;10.52;;;4.72;;
37647;SDS011;23490;53.656;10.076;2024-01-06T07:48:48;10.57;;;4.72;;
37647;SDS011;23490;53.656;10.076;2024-01-06T07:51:13;7.05;;;3.25;;
37647;SDS011;23490;53.656;10.076;2024-01-06T07:53:39;10.98;;;4.72;;
37647;SDS011;23490;53.656;10.076;2024-01-06T07:56:05;12.15;;;4.55;;
37647;SDS011;23490;53.656;10.076;2024-01-06T07:58:30;11.05;;;4.75;;
37647;SDS011;23490;53.656;10.076;2024-01-06T08:00:56;9.07;;;3.90;;
37647;SDS011;23490;53.656;10.076;2024-01-06T08:03:21;9.68;;;4.43;;
37647;SDS011;23490;53.656;10.076;2024-01-06T08:05:46;10.90;;;4.28;;
37647;SDS011;23490;53.656;10.076;2024-01-06T08:08:12;10.68;;;3.67;;
37647;SDS011;23490;53.656;10.076;2024-01-06T08:10:39;7.65;;;3.88;;
37647;SDS011;23490;53.656;10.076;2024-01-06T08:13:05;9.48;;;3.65;;
37647;SDS011;23490;53.656;10.076;2024-01-06T08:15:30;11.43;;;4.72;;
37647;SDS011;23490;53.656;10.076;2024-01-06T08:17:57;8.88;;;3.95;;
37647;SDS011;23490;53.656;10.076;2024-01-06T08:20:22;10.85;;;4.65;;
37647;SDS011;23490;53.656;10.076;2024-01-06T08:22:48;12.70;;;4.57;;
37647;SDS011;23490;53.656;10.076;2024-01-06T08:25:14;12.15;;;4.10;;
37647;SDS011;23490;53.656;10.076;2024-01-06T08:27:39;10.23;;;3.97;;
37647;SDS011;23490;53.656;10.076;2024-01-06T08:30:04;10.93;;;4.07;;
37647;SDS011;23490;53.656;10.076;2024-01-06T08:32:33;9.18;;;4.70;;
37647;SDS011;23490;53.656;10.076;2024-01-06T08:34:58;11.20;;;4.63;;
37647;SDS011;23490;53.656;10.076;2024-01-06T08:37:24;10.90;;;4.53;;
37647;SDS011;23490;53.656;10.076;2024-01-06T08:39:51;12.52;;;4.47;;
37647;SDS011;23490;53.656;10.076;2024-01-06T08:42:17;10.77;;;4.70;;
37647;SDS011;23490;53.656;10.076;2024-01-06T08:44:44;11.85;;;4.72;;
37647;SDS011;23490;53.656;10.076;2024-01-06T08:47:11;9.50;;;4.15;;
37647;SDS011;23490;53.656;10.076;2024-01-06T08:49:45;9.13;;;3.97;;
37647;SDS011;23490;53.656;10.076;2024-01-06T08:52:19;11.18;;;4.47;;
37647;SDS011;23490;53.656;10.076;2024-01-06T08:54:44;11.18;;;3.88;;
37647;SDS011;23490;53.656;10.076;2024-01-06T08:57:10;10.75;;;4.78;;
37647;SDS011;23490;53.656;10.076;2024-01-06T08:59:36;11.70;;;4.65;;
37647;SDS011;23490;53.656;10.076;2024-01-06T09:02:06;11.43;;;4.90;;
37647;SDS011;23490;53.656;10.076;2024-01-06T09:04:33;8.88;;;3.92;;
37647;SDS011;23490;53.656;10.076;2024-01-06T09:06:58;10.45;;;4.63;;
37647;SDS011;23490;53.656;10.076;2024-01-06T09:09:23;11.90;;;4.35;;
37647;SDS011;23490;53.656;10.076;2024-01-06T09:11:49;10.07;;;4.68;;
37647;SDS011;23490;53.656;10.076;2024-01-06T09:14:16;11.98;;;4.45;;
37647;SDS011;23490;53.656;10.076;2024-01-06T09:16:42;9.65;;;4.13;;
37647;SDS011;23490;53.656;10.076;2024-01-06T09:19:07;12.30;;;4.53;;
37647;SDS011;23490;53.656;10.076;2024-01-06T09:21:32;12.68;;;5.03;;
37647;SDS011;23490;53.656;10.076;2024-01-06T09:23:58;10.30;;;3.65;;
37647;SDS011;23490;53.656;10.076;2024-01-06T09:26:23;8.40;;;4.07;;
37647;SDS011;23490;53.656;10.076;2024-01-06T09:28:49;9.48;;;4.25;;
37647;SDS011;23490;53.656;10.076;2024-01-06T09:31:14;11.43;;;4.22;;
37647;SDS011;23490;53.656;10.076;2024-01-06T09:33:39;8.95;;;4.28;;
37647;SDS011;23490;53.656;10.076;2024-01-06T09:36:05;10.93;;;4.57;;
37647;SDS011;23490;53.656;10.076;2024-01-06T09:38:30;12.00;;;4.57;;
37647;SDS011;23490;53.656;10.076;2024-01-06T09:40:56;11.13;;;4.90;;
37647;SDS011;23490;53.656;10.076;2024-01-06T09:43:23;11.88;;;5.40;;
37647;SDS011;23490;53.656;10.076;2024-01-06T09:45:58;10.30;;;4.57;;
37647;SDS011;23490;53.656;10.076;2024-01-06T09:48:48;11.85;;;5.10;;
37647;SDS011;23490;53.656;10.076;2024-01-06T09:51:16;11.00;;;4.45;;
37647;SDS011;23490;53.656;10.076;2024-01-06T09:53:47;10.25;;;4.47;;
37647;SDS011;23490;53.656;10.076;2024-01-06T09:56:24;8.98;;;4.30;;
37647;SDS011;23490;53.656;10.076;2024-01-06T09:58:50;9.55;;;4.30;;
37647;SDS011;23490;53.656;10.076;2024-01-06T10:01:17;11.85;;;4.78;;
37647;SDS011;23490;53.656;10.076;2024-01-06T10:03:43;15.23;;;5.05;;
37647;SDS011;23490;53.656;10.076;2024-01-06T10:06:10;9.07;;;4.20;;
37647;SDS011;23490;53.656;10.076;2024-01-06T10:08:36;11.15;;;4.90;;
37647;SDS011;23490;53.656;10.076;2024-01-06T10:11:01;12.93;;;4.70;;
37647;SDS011;23490;53.656;10.076;2024-01-06T10:13:28;9.93;;;3.78;;
37647;SDS011;23490;53.656;10.076;2024-01-06T10:15:54;11.65;;;4.65;;
37647;SDS011;23490;53.656;10.076;2024-01-06T10:18:20;12.43;;;4.60;;
37647;SDS011;23490;53.656;10.076;2024-01-06T10:20:46;9.40;;;4.55;;
37647;SDS011;23490;53.656;10.076;2024-01-06T10:23:12;12.73;;;4.82;;
37647;SDS011;23490;53.656;10.076;2024-01-06T10:25:37;9.13;;;4.10;;
37647;SDS011;23490;53.656;10.076;2024-01-06T10:28:04;10.30;;;4.82;;
37647;SDS011;23490;53.656;10.076;2024-01-06T10:30:29;10.60;;;4.55;;
37647;SDS011;23490;53.656;10.076;2024-01-06T10:32:55;10.88;;;4.15;;
37647;SDS011;23490;53.656;10.076;2024-01-06T10:35:20;12.45;;;3.97;;
37647;SDS011;23490;53.656;10.076;2024-01-06T10:37:45;9.18;;;3.72;;
37647;SDS011;23490;53.656;10.076;2024-01-06T10:40:16;11.15;;;3.72;;
37647;SDS011;23490;53.656;10.076;2024-01-06T10:42:42;10.35;;;4.25;;
37647;SDS011;23490;53.656;10.076;2024-01-06T10:45:11;12.88;;;4.35;;
37647;SDS011;23490;53.656;10.076;2024-01-06T10:47:38;9.15;;;3.97;;
37647;SDS011;23490;53.656;10.076;2024-01-06T10:50:05;15.82;;;3.92;;
37647;SDS011;23490;53.656;10.076;2024-01-06T10:52:32;10.90;;;3.58;;
37647;SDS011;23490;53.656;10.076;2024-01-06T10:54:59;11.95;;;4.03;;
37647;SDS011;23490;53.656;10.076;2024-01-06T10:57:25;13.30;;;4.90;;
37647;SDS011;23490;53.656;10.076;2024-01-06T10:59:53;9.15;;;3.47;;
37647;SDS011;23490;53.656;10.076;2024-01-06T11:02:18;7.93;;;3.55;;
37647;SDS011;23490;53.656;10.076;2024-01-06T11:04:47;10.18;;;4.10;;
37647;SDS011;23490;53.656;10.076;2024-01-06T11:07:14;8.83;;;3.70;;
37647;SDS011;23490;53.656;10.076;2024-01-06T11:09:44;7.00;;;2.95;;
37647;SDS011;23490;53.656;10.076;2024-01-06T11:12:16;10.35;;;3.90;;
37647;SDS011;23490;53.656;10.076;2024-01-06T11:14:42;7.93;;;3.13;;
37647;SDS011;23490;53.656;10.076;2024-01-06T11:17:07;7.47;;;3.13;;
37647;SDS011;23490;53.656;10.076;2024-01-06T11:22:19;7.05;;;3.33;;
37647;SDS011;23490;53.656;10.076;2024-01-06T11:24:53;9.70;;;3.47;;
37647;SDS011;23490;53.656;10.076;2024-01-06T11:27:24;8.13;;;2.97;;
37647;SDS011;23490;53.656;10.076;2024-01-06T11:29:57;5.90;;;2.88;;
37647;SDS011;23490;53.656;10.076;2024-01-06T11:32:34;6.80;;;2.88;;
37647;SDS011;23490;53.656;10.076;2024-01-06T11:35:12;8.88;;;3.17;;
37647;SDS011;23490;53.656;10.076;2024-01-06T11:42:33;6.43;;;2.33;;
37647;SDS011;23490;53.656;10.076;2024-01-06T11:45:03;7.05;;;3.35;;
37647;SDS011;23490;53.656;10.076;2024-01-06T11:47:33;6.68;;;2.78;;
37647;SDS011;23490;53.656;10.076;2024-01-06T11:49:59;8.07;;;3.15;;
37647;SDS011;23490;53.656;10.076;2024-01-06T11:52:26;6.28;;;2.53;;
37647;SDS011;23490;53.656;10.076;2024-01-06T11:54:52;7.43;;;2.70;;
37647;SDS011;23490;53.656;10.076;2024-01-06T11:57:19;8.18;;;2.70;;
37647;SDS011;23490;53.656;10.076;2024-01-06T11:59:45;9.60;;;2.75;;
37647;SDS011;23490;53.656;10.076;2024-01-06T12:02:11;4.60;;;2.13;;
37647;SDS011;23490;53.656;10.076;2024-01-06T12:04:37;6.78;;;2.30;;
37647;SDS011;23490;53.656;10.076;2024-01-06T12:07:06;5.68;;;2.15;;
37647;SDS011;23490;53.656;10.076;2024-01-06T12:09:32;6.95;;;2.65;;
37647;SDS011;23490;53.656;10.076;2024-01-06T12:12:04;7.28;;;2.45;;
37647;SDS011;23490;53.656;10.076;2024-01-06T12:14:32;7.78;;;2.78;;
37647;SDS011;23490;53.656;10.076;2024-01-06T12:16:58;6.10;;;2.80;;
37647;SDS011;23490;53.656;10.076;2024-01-06T12:19:28;5.13;;;2.10;;
37647;SDS011;23490;53.656;10.076;2024-01-06T12:21:55;7.00;;;2.60;;
37647;SDS011;23490;53.656;10.076;2024-01-06T12:24:21;6.22;;;2.13;;
37647;SDS011;23490;53.656;10.076;2024-01-06T12:26:46;6.05;;;2.28;;
37647;SDS011;23490;53.656;10.076;2024-01-06T12:29:12;5.43;;;2.38;;
37647;SDS011;23490;53.656;10.076;2024-01-06T12:31:41;2.88;;;1.52;;
37647;SDS011;23490;53.656;10.076;2024-01-06T12:34:09;6.88;;;2.30;;
37647;SDS011;23490;53.656;10.076;2024-01-06T12:36:36;5.32;;;2.10;;
37647;SDS011;23490;53.656;10.076;2024-01-06T12:39:02;5.57;;;2.50;;
37647;SDS011;23490;53.656;10.076;2024-01-06T12:41:29;6.10;;;2.40;;
37647;SDS011;23490;53.656;10.076;2024-01-06T12:43:54;5.10;;;2.20;;
37647;SDS011;23490;53.656;10.076;2024-01-06T12:46:20;4.95;;;2.28;;
37647;SDS011;23490;53.656;10.076;2024-01-06T12:48:45;5.78;;;2.40;;
37647;SDS011;23490;53.656;10.076;2024-01-06T12:51:11;8.13;;;2.50;;
37647;SDS011;23490;53.656;10.076;2024-01-06T12:53:36;6.68;;;2.53;;
37647;SDS011;23490;53.656;10.076;2024-01-06T12:56:02;7.78;;;2.30;;
37647;SDS011;23490;53.656;10.076;2024-01-06T12:58:27;5.15;;;2.40;;
37647;SDS011;23490;53.656;10.076;2024-01-06T13:00:53;6.25;;;1.90;;
37647;SDS011;23490;53.656;10.076;2024-01-06T13:03:18;5.25;;;2.47;;
37647;SDS011;23490;53.656;10.076;2024-01-06T13:05:43;5.88;;;2.00;;
37647;SDS011;23490;53.656;10.076;2024-01-06T13:08:09;6.60;;;2.25;;
37647;SDS011;23490;53.656;10.076;2024-01-06T13:10:35;8.68;;;2.40;;
37647;SDS011;23490;53.656;10.076;2024-01-06T13:13:01;5.53;;;1.88;;
37647;SDS011;23490;53.656;10.076;2024-01-06T13:15:27;5.10;;;1.80;;
37647;SDS011;23490;53.656;10.076;2024-01-06T13:17:52;6.15;;;2.25;;
37647;SDS011;23490;53.656;10.076;2024-01-06T13:20:18;7.90;;;2.38;;
37647;SDS011;23490;53.656;10.076;2024-01-06T13:22:43;4.03;;;1.77;;
37647;SDS011;23490;53.656;10.076;2024-01-06T13:25:09;6.78;;;2.20;;
37647;SDS011;23490;53.656;10.076;2024-01-06T13:27:34;4.38;;;2.22;;
37647;SDS011;23490;53.656;10.076;2024-01-06T13:30:00;4.63;;;2.15;;
37647;SDS011;23490;53.656;10.076;2024-01-06T13:32:25;5.35;;;2.08;;
37647;SDS011;23490;53.656;10.076;2024-01-06T13:34:52;4.40;;;1.88;;
37647;SDS011;23490;53.656;10.076;2024-01-06T13:37:21;4.80;;;1.88;;
37647;SDS011;23490;53.656;10.076;2024-01-06T13:39:47;5.07;;;1.90;;
37647;SDS011;23490;53.656;10.076;2024-01-06T13:42:13;6.35;;;2.85;;
37647;SDS011;23490;53.656;10.076;2024-01-06T13:44:39;5.75;;;2.22;;
37647;SDS011;23490;53.656;10.076;2024-01-06T13:47:04;6.00;;;2.22;;
37647;SDS011;23490;53.656;10.076;2024-01-06T13:49:30;5.97;;;2.03;;
37647;SDS011;23490;53.656;10.076;2024-01-06T13:51:55;4.65;;;2.00;;
37647;SDS011;23490;53.656;10.076;2024-01-06T13:54:21;5.82;;;2.10;;
37647;SDS011;23490;53.656;10.076;2024-01-06T13:56:46;4.28;;;1.85;;
37647;SDS011;23490;53.656;10.076;2024-01-06T13:59:11;4.57;;;1.85;;
37647;SDS011;23490;53.656;10.076;2024-01-06T14:01:37;6.78;;;2.35;;
37647;SDS011;23490;53.656;10.076;2024-01-06T14:04:03;6.60;;;2.35;;
37647;SDS011;23490;53.656;10.076;2024-01-06T14:06:30;5.55;;;1.75;;
37647;SDS011;23490;53.656;10.076;2024-01-06T14:08:56;5.78;;;2.28;;
37647;SDS011;23490;53.656;10.076;2024-01-06T14:11:22;7.05;;;2.25;;
37647;SDS011;23490;53.656;10.076;2024-01-06T14:13:47;5.97;;;2.80;;
37647;SDS011;23490;53.656;10.076;2024-01-06T14:16:14;5.47;;;2.88;;
37647;SDS011;23490;53.656;10.076;2024-01-06T14:18:40;5.88;;;2.60;;
37647;SDS011;23490;53.656;10.076;2024-01-06T14:21:07;8.45;;;2.80;;
37647;SDS011;23490;53.656;10.076;2024-01-06T14:23:34;7.38;;;2.58;;
37647;SDS011;23490;53.656;10.076;2024-01-06T14:25:59;6.93;;;2.47;;
37647;SDS011;23490;53.656;10.076;2024-01-06T14:28:24;7.05;;;3.00;;
37647;SDS011;23490;53.656;10.076;2024-01-06T14:30:50;7.60;;;2.70;;